Time;durP1;ratioP1;P1;durP2;ratioP2;P2;SDS_P1;SDS_P2;PMS_P1;PMS_P2;Temp;Humidity;BMP_temperature;BMP_pressure;BME280_temperature;BME280_humidity;BME280_pressure;Samples;Min_cycle;Max_cycle;Signal;HPM_P1;HPM_P2
2020/12/28 05:02:29;;;;;;;1.30;1.30;;;3.80;99.90;;;;;;5048025;23;20239;-68
2020/12/28 05:05:05;;;;;;;1.60;1.60;;;3.80;99.90;;;;;;4972961;28;20287;-69
2020/12/28 05:07:32;;;;;;;1.98;1.83;;;3.70;99.90;;;;;;4973758;28;20216;-69
2020/12/28 05:09:58;;;;;;;1.42;1.42;;;3.70;99.90;;;;;;4973031;28;20231;-69
2020/12/28 05:12:24;;;;;;;1.30;1.20;;;3.70;99.90;;;;;;4954994;28;20229;-70
2020/12/28 05:14:50;;;;;;;1.05;1.05;;;3.70;99.90;;;;;;4953726;28;20212;-69
2020/12/28 05:17:16;;;;;;;1.70;1.70;;;3.70;99.90;;;;;;4954192;29;20205;-70
2020/12/28 05:19:43;;;;;;;2.20;2.08;;;3.60;99.90;;;;;;4954187;28;20292;-69
2020/12/28 05:22:09;;;;;;;2.10;2.00;;;3.60;99.90;;;;;;4953380;28;20237;-70
2020/12/28 05:24:35;;;;;;;1.98;1.88;;;3.60;99.90;;;;;;4954383;29;20697;-70
2020/12/28 05:27:01;;;;;;;2.90;2.05;;;3.60;99.90;;;;;;4954305;29;20208;-70
2020/12/28 05:29:29;;;;;;;2.25;2.15;;;3.60;99.90;;;;;;4952499;28;20212;-71
2020/12/28 05:31:56;;;;;;;2.15;1.95;;;3.50;99.90;;;;;;4950052;28;20606;-70
2020/12/28 05:34:24;;;;;;;1.58;1.58;;;3.50;99.90;;;;;;4953349;28;20205;-71
2020/12/28 05:36:53;;;;;;;2.20;2.10;;;3.50;99.90;;;;;;4935988;29;20210;-70
2020/12/28 05:39:20;;;;;;;2.15;2.05;;;3.50;99.90;;;;;;4945318;29;20213;-70
2020/12/28 05:41:54;;;;;;;1.25;1.20;;;3.40;99.90;;;;;;4953419;28;20232;-70
2020/12/28 05:44:23;;;;;;;1.50;1.50;;;3.40;99.90;;;;;;4953248;28;20381;-70
2020/12/28 05:46:59;;;;;;;1.73;1.63;;;3.40;99.90;;;;;;4952223;28;20213;-70
2020/12/28 05:49:32;;;;;;;2.13;2.00;;;3.40;99.90;;;;;;4954310;28;20235;-70
2020/12/28 05:52:00;;;;;;;1.35;1.35;;;3.40;99.90;;;;;;4944035;29;20232;-70
2020/12/28 05:54:28;;;;;;;1.77;1.65;;;3.30;99.90;;;;;;4953578;28;20198;-70
2020/12/28 05:56:55;;;;;;;1.52;1.48;;;3.30;99.90;;;;;;4942727;29;20618;-70
2020/12/28 05:59:21;;;;;;;2.53;1.75;;;3.30;99.90;;;;;;4949033;28;20312;-70
2020/12/28 06:01:48;;;;;;;2.10;2.00;;;3.30;99.90;;;;;;4941741;29;20328;-70
2020/12/28 06:04:16;;;;;;;1.90;1.90;;;3.30;99.90;;;;;;4945105;28;20238;-70
2020/12/28 06:06:43;;;;;;;1.70;1.70;;;3.30;99.90;;;;;;4949091;29;20205;-70
2020/12/28 06:09:10;;;;;;;3.75;2.03;;;3.20;99.90;;;;;;4951557;28;20283;-70
2020/12/28 06:11:37;;;;;;;2.10;2.00;;;3.20;99.90;;;;;;4953288;28;20226;-70
2020/12/28 06:14:13;;;;;;;2.10;2.03;;;3.20;99.90;;;;;;4942586;28;20208;-70
2020/12/28 06:16:40;;;;;;;2.03;1.92;;;3.20;99.90;;;;;;4955516;28;20304;-70
2020/12/28 06:19:06;;;;;;;1.52;1.52;;;3.30;99.90;;;;;;4952720;28;20208;-70
2020/12/28 06:21:36;;;;;;;2.17;2.08;;;3.20;99.90;;;;;;4952412;28;20236;-70
2020/12/28 06:24:02;;;;;;;1.70;1.70;;;3.20;99.90;;;;;;4949848;29;20228;-69
2020/12/28 06:26:29;;;;;;;1.73;1.63;;;3.30;99.90;;;;;;4952996;28;20212;-70
2020/12/28 06:29:04;;;;;;;1.60;1.60;;;3.30;99.90;;;;;;4952541;29;20685;-69
2020/12/28 06:31:30;;;;;;;2.30;2.20;;;3.30;99.90;;;;;;4953425;29;20256;-69
2020/12/28 06:33:57;;;;;;;1.90;1.90;;;3.30;99.90;;;;;;4938730;28;20252;-70
2020/12/28 06:36:23;;;;;;;2.50;2.30;;;3.30;99.90;;;;;;4944052;28;20209;-70
2020/12/28 06:38:56;;;;;;;2.17;1.77;;;3.30;99.90;;;;;;4951631;29;20209;-69
2020/12/28 06:41:26;;;;;;;2.10;2.00;;;3.30;99.90;;;;;;4950973;29;20225;-70
2020/12/28 06:43:58;;;;;;;1.88;1.88;;;3.30;99.90;;;;;;4951629;28;20304;-70
2020/12/28 06:46:24;;;;;;;2.05;1.95;;;3.30;99.90;;;;;;4952199;28;20205;-69
2020/12/28 06:48:50;;;;;;;2.58;2.38;;;3.30;99.90;;;;;;4948522;28;20218;-70
2020/12/28 06:51:16;;;;;;;2.10;2.00;;;3.30;99.90;;;;;;4940610;29;20222;-70
2020/12/28 06:53:43;;;;;;;2.35;2.25;;;3.30;99.90;;;;;;4952715;28;20293;-70
2020/12/28 06:56:10;;;;;;;2.28;2.17;;;3.30;99.90;;;;;;4938231;28;20684;-70
2020/12/28 06:58:37;;;;;;;2.83;2.50;;;3.30;99.90;;;;;;4937539;29;20227;-70
2020/12/28 07:01:06;;;;;;;4.45;3.55;;;3.20;99.90;;;;;;4937587;28;20237;-71
2020/12/28 07:03:32;;;;;;;2.97;2.20;;;3.30;99.90;;;;;;4937407;29;20563;-70
2020/12/28 07:05:59;;;;;;;2.13;2.03;;;3.20;99.90;;;;;;4941510;28;20205;-69
2020/12/28 07:08:26;;;;;;;2.10;1.85;;;3.20;99.90;;;;;;4939592;29;20297;-70
2020/12/28 07:11:01;;;;;;;2.53;2.42;;;3.20;99.90;;;;;;4950595;28;20585;-69
2020/12/28 07:13:27;;;;;;;3.55;3.03;;;3.20;99.90;;;;;;4955561;28;20228;-69
2020/12/28 07:16:01;;;;;;;2.60;2.40;;;3.20;99.90;;;;;;4954060;28;20542;-69
2020/12/28 07:18:28;;;;;;;2.20;2.10;;;3.30;99.90;;;;;;4956317;28;20205;-69
2020/12/28 07:20:57;;;;;;;2.60;2.50;;;3.30;99.90;;;;;;4955724;28;20225;-69
2020/12/28 07:23:24;;;;;;;2.63;2.45;;;3.30;99.90;;;;;;4948228;28;20229;-69
2020/12/28 07:26:04;;;;;;;2.20;2.10;;;3.20;99.90;;;;;;4956325;28;20270;-69
2020/12/28 07:28:30;;;;;;;1.90;1.88;;;3.20;99.90;;;;;;4955898;28;20205;-69
2020/12/28 07:30:57;;;;;;;2.05;1.95;;;3.20;99.90;;;;;;4955802;28;20229;-70
2020/12/28 07:33:24;;;;;;;3.83;2.72;;;3.20;99.90;;;;;;4952182;28;20209;-70
2020/12/28 07:36:03;;;;;;;3.42;2.38;;;3.20;99.90;;;;;;4955572;28;20247;-70
2020/12/28 07:38:29;;;;;;;2.40;2.30;;;3.10;99.90;;;;;;4955944;28;20249;-72
2020/12/28 07:40:55;;;;;;;2.22;2.13;;;3.20;99.90;;;;;;4954477;28;20225;-72
2020/12/28 07:43:22;;;;;;;2.88;2.67;;;3.10;99.90;;;;;;4943532;28;20209;-72
2020/12/28 07:45:48;;;;;;;2.20;2.00;;;3.10;99.90;;;;;;4950652;28;20205;-72
2020/12/28 07:48:18;;;;;;;2.10;2.00;;;3.10;99.90;;;;;;4956020;28;20209;-70
2020/12/28 07:50:46;;;;;;;2.25;2.15;;;3.10;99.90;;;;;;4953322;28;20366;-71
2020/12/28 07:53:16;;;;;;;3.90;2.70;;;3.10;99.90;;;;;;4955846;28;20213;-72
2020/12/28 07:55:49;;;;;;;3.28;3.08;;;3.10;99.90;;;;;;4956616;28;20614;-72
2020/12/28 07:58:25;;;;;;;2.65;2.55;;;3.10;99.90;;;;;;4957544;29;20213;-71
2020/12/28 08:00:54;;;;;;;3.70;2.35;;;3.10;99.90;;;;;;4955662;28;20243;-70
2020/12/28 08:03:26;;;;;;;2.70;2.47;;;3.10;99.90;;;;;;4942987;29;20278;-70
2020/12/28 08:05:54;;;;;;;2.58;1.67;;;3.10;99.90;;;;;;4936843;28;20221;-69
2020/12/28 08:08:23;;;;;;;3.25;3.00;;;3.20;99.90;;;;;;4936213;28;20441;-71
2020/12/28 08:10:55;;;;;;;1.65;1.55;;;3.20;99.90;;;;;;4936326;29;20237;-69
2020/12/28 08:13:25;;;;;;;2.33;2.22;;;3.20;99.90;;;;;;4936068;29;20213;-69
2020/12/28 08:15:51;;;;;;;2.47;2.38;;;3.20;99.90;;;;;;4936461;29;20221;-70
2020/12/28 08:18:17;;;;;;;1.63;1.52;;;3.20;99.90;;;;;;4935961;29;20266;-71
2020/12/28 08:20:43;;;;;;;1.80;1.70;;;3.20;99.90;;;;;;4955670;28;20648;-70
2020/12/28 08:23:09;;;;;;;2.63;2.53;;;3.20;99.90;;;;;;4953412;29;20637;-70
2020/12/28 08:25:37;;;;;;;4.30;2.67;;;3.20;99.90;;;;;;4955370;29;20674;-70
2020/12/28 08:28:03;;;;;;;3.00;2.80;;;3.30;99.90;;;;;;4955396;28;20249;-70
2020/12/28 08:30:31;;;;;;;4.65;3.30;;;3.30;99.90;;;;;;4954624;28;20229;-69
2020/12/28 08:32:59;;;;;;;3.67;2.90;;;3.30;99.90;;;;;;4955046;28;20220;-69
2020/12/28 08:35:26;;;;;;;1.15;0.90;;;3.30;99.90;;;;;;4953830;28;20300;-70
2020/12/28 08:37:53;;;;;;;2.80;2.60;;;3.40;99.90;;;;;;4936152;29;20206;-69
2020/12/28 08:40:21;;;;;;;0.95;0.95;;;3.40;99.90;;;;;;4935726;29;20305;-69
2020/12/28 08:42:53;;;;;;;2.40;2.30;;;3.40;99.90;;;;;;4935869;29;20292;-69
2020/12/28 08:45:20;;;;;;;2.88;2.67;;;3.40;99.90;;;;;;4935077;29;20234;-70
2020/12/28 08:47:51;;;;;;;3.70;2.80;;;3.40;99.90;;;;;;4935815;29;20666;-70
2020/12/28 08:50:18;;;;;;;2.40;2.25;;;3.40;99.90;;;;;;4935989;29;20254;-70
2020/12/28 08:52:51;;;;;;;3.88;2.97;;;3.40;99.90;;;;;;4935633;29;20308;-70
2020/12/28 08:55:18;;;;;;;3.80;3.50;;;3.50;99.90;;;;;;4935278;28;20206;-71
2020/12/28 08:57:50;;;;;;;2.13;2.00;;;3.50;99.90;;;;;;4941281;28;20236;-70
2020/12/28 09:00:18;;;;;;;2.75;2.65;;;3.50;99.90;;;;;;4953345;28;20559;-70
2020/12/28 09:02:51;;;;;;;3.17;2.88;;;3.60;99.90;;;;;;4954683;29;20213;-70
2020/12/28 09:05:17;;;;;;;3.00;2.90;;;3.60;99.90;;;;;;4953846;29;20303;-70
2020/12/28 09:07:43;;;;;;;3.17;2.97;;;3.60;99.90;;;;;;4951864;29;20305;-71
2020/12/28 09:10:09;;;;;;;3.67;3.47;;;3.70;99.90;;;;;;4939635;29;20708;-70
2020/12/28 09:12:35;;;;;;;3.38;3.25;;;3.70;99.90;;;;;;4935491;28;20214;-72
2020/12/28 09:15:01;;;;;;;3.67;3.30;;;3.70;99.90;;;;;;4953529;28;20210;-70
2020/12/28 09:17:28;;;;;;;3.83;3.53;;;3.70;99.90;;;;;;4954009;29;20205;-70
2020/12/28 09:19:54;;;;;;;3.33;3.13;;;3.80;99.90;;;;;;4951611;28;20206;-71
2020/12/28 09:22:20;;;;;;;6.22;2.80;;;3.80;99.90;;;;;;4951835;28;20716;-70
2020/12/28 09:24:46;;;;;;;4.28;3.88;;;3.80;99.90;;;;;;4954171;28;20570;-71
2020/12/28 09:27:13;;;;;;;2.30;2.20;;;3.90;99.90;;;;;;4954512;28;20304;-70
2020/12/28 09:29:39;;;;;;;3.67;3.38;;;3.90;99.90;;;;;;4953528;28;20224;-71
2020/12/28 09:32:05;;;;;;;4.93;4.53;;;3.90;99.90;;;;;;4954063;28;20236;-70
2020/12/28 09:34:32;;;;;;;5.22;4.82;;;3.90;99.90;;;;;;4944729;29;20198;-71
2020/12/28 09:36:59;;;;;;;4.22;3.92;;;3.90;99.90;;;;;;4941982;29;20216;-71
2020/12/28 09:39:25;;;;;;;5.20;4.05;;;3.90;99.90;;;;;;4953878;29;20300;-71
2020/12/28 09:41:51;;;;;;;3.10;2.83;;;3.90;99.90;;;;;;4953605;29;20225;-71
2020/12/28 09:44:17;;;;;;;4.22;3.95;;;3.90;99.90;;;;;;4953458;29;20237;-71
2020/12/28 09:46:44;;;;;;;3.47;3.28;;;3.90;99.90;;;;;;4954165;29;20320;-70
2020/12/28 09:49:10;;;;;;;3.40;2.95;;;3.90;99.90;;;;;;4941595;29;20210;-70
2020/12/28 09:51:37;;;;;;;2.10;2.10;;;3.90;99.90;;;;;;4934441;29;20241;-70
2020/12/28 09:54:03;;;;;;;4.22;3.80;;;3.90;99.90;;;;;;4934474;29;20306;-71
2020/12/28 09:56:29;;;;;;;3.78;3.58;;;4.00;99.90;;;;;;4934877;29;20213;-71
2020/12/28 09:58:55;;;;;;;3.90;3.60;;;4.00;99.90;;;;;;4934215;29;20579;-71
2020/12/28 10:01:21;;;;;;;4.43;4.03;;;4.00;99.90;;;;;;4934365;29;20292;-70
2020/12/28 10:03:47;;;;;;;2.60;2.38;;;4.00;99.90;;;;;;4949380;28;20566;-71
2020/12/28 10:08:57;;;;;;;3.38;3.08;;;4.00;99.90;;;;;;4953518;28;20606;-71
2020/12/28 10:11:23;;;;;;;3.33;3.13;;;4.10;99.90;;;;;;4953594;29;20232;-71
2020/12/28 10:13:49;;;;;;;4.43;4.00;;;4.10;99.90;;;;;;4953053;29;20212;-70
2020/12/28 10:16:21;;;;;;;3.28;2.95;;;4.10;99.90;;;;;;4949909;29;20201;-71
2020/12/28 10:18:47;;;;;;;4.60;3.72;;;4.10;99.90;;;;;;4934268;29;20296;-71
2020/12/28 10:21:13;;;;;;;2.90;2.80;;;4.20;99.90;;;;;;4934329;29;20230;-71
2020/12/28 10:23:39;;;;;;;4.97;4.57;;;4.20;99.90;;;;;;4934223;29;20206;-70
2020/12/28 10:26:06;;;;;;;4.20;3.90;;;4.20;99.90;;;;;;4934551;29;20218;-70
2020/12/28 10:28:34;;;;;;;4.70;4.40;;;4.30;99.90;;;;;;4933915;29;20245;-70
2020/12/28 10:31:00;;;;;;;5.28;4.88;;;4.30;99.90;;;;;;4944409;29;20225;-71
2020/12/28 10:33:26;;;;;;;5.15;4.20;;;4.40;99.90;;;;;;4957179;29;20645;-71
2020/12/28 10:35:52;;;;;;;4.25;3.95;;;4.40;99.90;;;;;;4957347;29;20523;-71
2020/12/28 10:38:18;;;;;;;4.10;3.75;;;4.50;99.90;;;;;;4957144;28;20653;-71
2020/12/28 10:40:44;;;;;;;5.43;4.93;;;4.50;99.90;;;;;;4957147;29;20240;-70
2020/12/28 10:43:11;;;;;;;13.07;7.72;;;4.60;99.90;;;;;;4956609;29;20695;-71
2020/12/28 10:45:37;;;;;;;9.15;7.43;;;4.60;99.90;;;;;;4942505;29;20225;-71
2020/12/28 10:48:04;;;;;;;5.20;4.75;;;4.70;99.90;;;;;;4937956;29;20314;-71
2020/12/28 10:50:30;;;;;;;6.05;5.45;;;4.70;99.90;;;;;;4938391;29;20233;-73
2020/12/28 10:52:56;;;;;;;4.40;3.65;;;4.70;99.90;;;;;;4955715;29;20205;-73
2020/12/28 10:55:22;;;;;;;5.63;5.10;;;4.70;99.90;;;;;;4957127;29;20209;-73
2020/12/28 10:57:49;;;;;;;4.30;4.00;;;4.70;99.90;;;;;;4957005;29;20282;-71
2020/12/28 11:00:15;;;;;;;4.72;4.18;;;4.70;99.90;;;;;;4937276;29;20268;-71
2020/12/28 11:02:42;;;;;;;3.78;3.47;;;4.70;99.90;;;;;;4937621;29;20225;-70
2020/12/28 11:05:08;;;;;;;3.95;3.65;;;4.70;99.90;;;;;;4937519;29;20222;-71
2020/12/28 11:07:34;;;;;;;3.55;3.25;;;4.70;99.90;;;;;;4938011;29;20213;-70
2020/12/28 11:10:00;;;;;;;4.43;4.13;;;4.60;99.90;;;;;;4937740;29;20221;-69
2020/12/28 11:12:26;;;;;;;4.63;4.22;;;4.70;99.90;;;;;;4941416;29;20229;-69
2020/12/28 11:14:52;;;;;;;9.52;3.33;;;4.80;99.90;;;;;;4956058;28;20217;-70
2020/12/28 11:17:19;;;;;;;3.20;3.00;;;4.80;99.90;;;;;;4956411;28;20220;-70
2020/12/28 11:19:45;;;;;;;4.85;4.40;;;4.80;99.90;;;;;;4956363;28;20536;-71
2020/12/28 11:22:12;;;;;;;4.43;4.03;;;4.70;99.90;;;;;;4955743;28;20732;-72
2020/12/28 11:24:38;;;;;;;4.28;3.97;;;4.70;99.90;;;;;;4956855;28;20228;-73
2020/12/28 11:27:04;;;;;;;4.85;4.45;;;4.80;99.90;;;;;;4957418;28;20217;-73
2020/12/28 11:29:30;;;;;;;4.63;4.22;;;4.80;99.90;;;;;;4954798;28;20197;-72
2020/12/28 11:31:56;;;;;;;5.70;5.20;;;4.90;99.90;;;;;;4956524;28;20697;-72
2020/12/28 11:34:23;;;;;;;4.82;4.43;;;4.90;99.90;;;;;;4956194;28;20200;-71
2020/12/28 11:36:49;;;;;;;5.03;4.18;;;5.00;99.90;;;;;;4955337;28;20260;-71
2020/12/28 11:39:15;;;;;;;4.50;4.13;;;5.00;99.90;;;;;;4938343;28;20206;-71
2020/12/28 11:41:41;;;;;;;4.03;3.78;;;5.00;99.90;;;;;;4936319;29;20347;-70
2020/12/28 11:44:10;;;;;;;6.80;4.63;;;5.00;99.90;;;;;;4954003;29;20224;-71
2020/12/28 11:46:37;;;;;;;5.10;4.60;;;5.10;99.90;;;;;;4953924;28;20224;-72
2020/12/28 11:49:03;;;;;;;5.00;4.60;;;5.10;99.90;;;;;;4956259;28;20201;-72
2020/12/28 11:51:30;;;;;;;4.75;4.45;;;5.20;99.90;;;;;;4955972;28;20229;-71
2020/12/28 11:53:56;;;;;;;5.90;5.40;;;5.20;99.90;;;;;;4954785;28;20212;-71
2020/12/28 11:56:23;;;;;;;5.88;4.75;;;5.20;99.90;;;;;;4955835;28;20402;-71
2020/12/28 11:58:49;;;;;;;6.88;6.10;;;5.20;99.90;;;;;;4955227;28;20268;-71
2020/12/28 12:01:16;;;;;;;5.78;5.22;;;5.20;99.90;;;;;;4955607;28;20296;-71
2020/12/28 12:03:44;;;;;;;6.50;5.75;;;5.20;99.90;;;;;;4955111;28;20205;-71
2020/12/28 12:06:14;;;;;;;6.05;5.50;;;5.20;99.90;;;;;;4961729;28;20215;-71
2020/12/28 12:09:09;;;;;;;9.40;8.57;;;5.30;99.90;;;;;;4958166;28;20205;-71
2020/12/28 12:11:28;;;;;;;11.23;10.27;;;5.30;99.90;;;;;;4954783;29;20221;-71
2020/12/28 12:13:54;;;;;;;6.55;5.60;;;5.30;99.90;;;;;;4955207;28;20212;-71
2020/12/28 12:16:21;;;;;;;5.78;5.32;;;5.30;99.90;;;;;;4954950;28;20585;-71
2020/12/28 12:18:48;;;;;;;6.00;5.22;;;5.30;99.90;;;;;;4955425;29;20599;-71
2020/12/28 12:21:14;;;;;;;4.35;4.00;;;5.30;99.90;;;;;;4955365;29;20221;-72
2020/12/28 12:23:41;;;;;;;6.68;5.53;;;5.30;99.90;;;;;;4954523;28;20236;-71
2020/12/28 12:26:07;;;;;;;5.97;5.25;;;5.30;99.90;;;;;;4954150;29;20205;-71
2020/12/28 12:28:33;;;;;;;5.72;4.78;;;5.40;99.90;;;;;;4954807;28;20209;-71
2020/12/28 12:30:59;;;;;;;6.97;6.25;;;5.40;99.90;;;;;;4955288;28;20724;-71
2020/12/28 12:33:26;;;;;;;5.60;5.10;;;5.40;99.90;;;;;;4955279;28;20217;-71
2020/12/28 12:35:52;;;;;;;4.40;4.10;;;5.50;99.90;;;;;;4955192;28;20288;-71
2020/12/28 12:38:18;;;;;;;5.32;4.55;;;5.40;99.90;;;;;;4954963;28;20268;-71
2020/12/28 12:40:45;;;;;;;7.32;5.43;;;5.40;99.90;;;;;;4943265;28;20714;-71
2020/12/28 12:43:11;;;;;;;6.20;5.53;;;5.50;99.90;;;;;;4942052;29;20205;-71
2020/12/28 12:45:38;;;;;;;8.27;5.45;;;5.40;99.90;;;;;;4954314;28;20217;-71
2020/12/28 12:48:05;;;;;;;5.68;5.10;;;5.40;99.90;;;;;;4954832;28;20217;-71
2020/12/28 12:50:31;;;;;;;5.82;5.32;;;5.40;99.90;;;;;;4954366;28;20578;-71
2020/12/28 12:52:57;;;;;;;5.68;5.18;;;5.40;99.90;;;;;;4952820;28;20205;-70
2020/12/28 12:55:23;;;;;;;6.30;5.80;;;5.40;99.90;;;;;;4934251;29;20545;-69
2020/12/28 12:57:50;;;;;;;7.10;6.50;;;5.50;99.90;;;;;;4934837;29;20492;-69
2020/12/28 13:00:18;;;;;;;8.48;6.70;;;5.50;99.90;;;;;;4934772;28;20585;-70
2020/12/28 13:02:46;;;;;;;5.43;5.00;;;5.50;99.90;;;;;;4935514;29;20666;-70
2020/12/28 13:05:12;;;;;;;6.75;6.10;;;5.50;99.90;;;;;;4941176;29;20709;-71
2020/12/28 13:07:40;;;;;;;14.23;9.60;;;5.50;99.90;;;;;;4941389;29;20300;-70
2020/12/28 13:10:06;;;;;;;20.30;15.73;;;5.50;99.90;;;;;;4936527;29;20741;-70
2020/12/28 13:12:33;;;;;;;8.57;7.05;;;5.50;99.90;;;;;;4935123;29;20646;-70
2020/12/28 13:15:00;;;;;;;4.82;4.50;;;5.50;99.90;;;;;;4934943;29;20238;-70
2020/12/28 13:17:26;;;;;;;5.45;4.97;;;5.50;99.90;;;;;;4935353;29;20260;-70
2020/12/28 13:19:52;;;;;;;5.20;4.78;;;5.50;99.90;;;;;;4935492;29;20214;-69
2020/12/28 13:22:18;;;;;;;6.50;5.90;;;5.50;99.90;;;;;;4936922;29;20241;-70
2020/12/28 13:24:46;;;;;;;6.05;5.47;;;5.50;99.90;;;;;;4952338;28;20287;-71
2020/12/28 13:27:12;;;;;;;5.22;4.72;;;5.50;99.90;;;;;;4952647;28;20264;-71
2020/12/28 13:29:39;;;;;;;4.28;3.97;;;5.60;99.90;;;;;;4953282;28;20213;-70
2020/12/28 13:32:06;;;;;;;5.10;4.70;;;5.60;99.90;;;;;;4954032;28;20232;-70
2020/12/28 13:34:33;;;;;;;3.70;3.40;;;5.60;99.90;;;;;;4952642;28;20233;-70
2020/12/28 13:36:59;;;;;;;3.75;3.45;;;5.60;99.90;;;;;;4950610;28;20213;-69
2020/12/28 13:39:25;;;;;;;3.75;3.55;;;5.50;99.90;;;;;;4944357;29;20206;-69
2020/12/28 13:41:51;;;;;;;3.85;3.65;;;5.50;99.90;;;;;;4949384;28;20240;-69
2020/12/28 13:44:17;;;;;;;4.03;3.72;;;5.50;99.90;;;;;;4953246;28;20666;-69
2020/12/28 13:46:44;;;;;;;3.20;3.00;;;5.50;99.90;;;;;;4953226;28;20228;-69
2020/12/28 13:49:11;;;;;;;3.70;3.45;;;5.50;99.90;;;;;;4950035;28;20206;-69
2020/12/28 13:51:37;;;;;;;3.88;3.60;;;5.50;99.90;;;;;;4937984;29;20749;-72
2020/12/28 13:54:05;;;;;;;3.45;3.20;;;5.50;99.90;;;;;;4949982;28;20280;-69
2020/12/28 13:56:32;;;;;;;3.65;3.45;;;5.50;99.90;;;;;;4953183;28;20209;-69
2020/12/28 13:58:58;;;;;;;5.38;3.72;;;5.50;99.90;;;;;;4952855;28;20216;-69
2020/12/28 14:01:25;;;;;;;6.05;4.50;;;5.50;99.90;;;;;;4952647;28;20467;-70
2020/12/28 14:03:51;;;;;;;5.28;4.78;;;5.60;99.90;;;;;;4952811;28;20519;-70
2020/12/28 14:06:19;;;;;;;4.68;3.83;;;5.50;99.90;;;;;;4948790;28;20622;-71
2020/12/28 14:08:47;;;;;;;4.28;4.00;;;5.50;99.90;;;;;;4948857;28;20293;-70
2020/12/28 14:11:13;;;;;;;4.10;3.60;;;5.50;99.90;;;;;;4953234;28;20588;-70
2020/12/28 14:13:40;;;;;;;4.82;4.43;;;5.50;99.90;;;;;;4950690;28;20661;-70
2020/12/28 14:16:08;;;;;;;5.03;4.47;;;5.50;99.90;;;;;;4947679;29;20839;-70
2020/12/28 14:18:34;;;;;;;4.65;4.25;;;5.50;99.90;;;;;;4941477;29;20208;-69
2020/12/28 14:21:01;;;;;;;4.35;4.05;;;5.50;99.90;;;;;;4951550;28;20233;-69
2020/12/28 14:23:29;;;;;;;4.80;4.40;;;5.50;99.90;;;;;;4948194;28;20303;-69
2020/12/28 14:25:55;;;;;;;4.47;4.07;;;5.50;99.90;;;;;;4952762;28;20736;-70
2020/12/28 14:28:21;;;;;;;4.30;4.00;;;5.50;99.90;;;;;;4936055;28;20209;-70
2020/12/28 14:30:47;;;;;;;6.93;4.50;;;5.50;99.90;;;;;;4941375;28;20221;-70
2020/12/28 14:33:13;;;;;;;4.68;4.25;;;5.50;99.90;;;;;;4941330;28;20210;-70
2020/12/28 14:35:40;;;;;;;4.43;3.95;;;5.50;99.90;;;;;;4934138;29;20237;-70
2020/12/28 14:38:06;;;;;;;5.15;4.65;;;5.50;99.90;;;;;;4940905;29;20209;-70
2020/12/28 14:40:33;;;;;;;4.72;4.32;;;5.50;99.90;;;;;;4949852;28;20233;-70
2020/12/28 14:42:59;;;;;;;5.85;4.43;;;5.50;99.90;;;;;;4939479;29;20208;-70
2020/12/28 14:45:25;;;;;;;5.68;5.03;;;5.50;99.90;;;;;;4951713;28;20626;-70
2020/12/28 14:47:51;;;;;;;4.63;4.32;;;5.40;99.90;;;;;;4951165;29;20261;-70
2020/12/28 14:50:17;;;;;;;6.32;4.60;;;5.40;99.90;;;;;;4951961;28;20213;-70
2020/12/28 14:52:44;;;;;;;4.28;3.95;;;5.40;99.90;;;;;;4951793;28;20213;-70
2020/12/28 14:55:10;;;;;;;6.80;5.13;;;5.40;99.90;;;;;;4968244;28;20231;-70
2020/12/28 14:57:37;;;;;;;5.03;4.63;;;5.30;99.90;;;;;;4956277;28;20244;-70
2020/12/28 15:00:04;;;;;;;5.18;4.78;;;5.30;99.90;;;;;;4951761;28;20209;-70
2020/12/28 15:02:30;;;;;;;4.78;4.38;;;5.30;99.90;;;;;;4951844;28;20240;-69
2020/12/28 15:04:56;;;;;;;4.85;4.45;;;5.30;99.90;;;;;;4951462;28;20213;-69
2020/12/28 15:07:22;;;;;;;3.90;3.55;;;5.30;99.90;;;;;;4951569;28;20205;-72
2020/12/28 15:09:50;;;;;;;3.58;3.28;;;5.30;99.90;;;;;;4951854;28;20212;-72
2020/12/28 15:12:16;;;;;;;4.43;3.97;;;5.30;99.90;;;;;;4952321;28;20222;-72
2020/12/28 15:14:43;;;;;;;4.30;4.03;;;5.30;99.90;;;;;;4951829;29;20225;-72
2020/12/28 15:17:10;;;;;;;4.13;3.92;;;5.30;99.90;;;;;;4953038;28;20319;-69
2020/12/28 15:19:36;;;;;;;4.30;3.97;;;5.20;99.90;;;;;;4955980;28;20232;-70
2020/12/28 15:22:02;;;;;;;3.92;3.72;;;5.30;99.90;;;;;;4956217;28;20221;-70
2020/12/28 15:24:28;;;;;;;4.32;4.03;;;5.30;99.90;;;;;;4956246;28;20301;-70
2020/12/28 15:26:54;;;;;;;3.83;3.53;;;5.30;99.90;;;;;;4956581;28;20217;-70
2020/12/28 15:29:20;;;;;;;3.42;3.22;;;5.30;99.90;;;;;;4955377;28;20205;-71
2020/12/28 15:31:47;;;;;;;4.30;4.03;;;5.30;99.90;;;;;;4955691;28;20276;-70
2020/12/28 15:34:13;;;;;;;2.17;2.08;;;5.30;99.90;;;;;;4955858;28;20221;-70
2020/12/28 15:36:40;;;;;;;4.85;4.40;;;5.30;99.90;;;;;;4956175;28;20267;-70
2020/12/28 15:39:07;;;;;;;4.10;3.80;;;5.30;99.90;;;;;;4955685;28;20213;-69
2020/12/28 15:41:33;;;;;;;3.78;3.55;;;5.30;99.90;;;;;;4955569;28;20221;-70
2020/12/28 15:43:59;;;;;;;4.60;3.95;;;5.30;99.90;;;;;;4954717;28;20201;-70
2020/12/28 15:46:25;;;;;;;4.65;4.35;;;5.30;99.90;;;;;;4950226;28;20616;-70
2020/12/28 15:48:52;;;;;;;4.05;3.85;;;5.30;99.90;;;;;;4942330;28;20213;-70
2020/12/28 15:51:19;;;;;;;5.78;3.90;;;5.30;99.90;;;;;;4948778;29;20332;-70
2020/12/28 15:53:45;;;;;;;4.28;3.88;;;5.20;99.90;;;;;;4947091;29;20298;-70
2020/12/28 15:56:11;;;;;;;4.30;4.05;;;5.20;99.90;;;;;;4936848;29;20225;-70
2020/12/28 15:58:38;;;;;;;5.30;4.80;;;5.20;99.90;;;;;;4955235;28;20205;-69
2020/12/28 16:01:04;;;;;;;4.35;3.90;;;5.20;99.90;;;;;;4955960;28;20264;-70
2020/12/28 16:03:32;;;;;;;3.55;3.35;;;5.20;99.90;;;;;;4955458;28;20611;-70
2020/12/28 16:06:00;;;;;;;3.97;3.67;;;5.20;99.90;;;;;;4955390;28;20198;-70
2020/12/28 16:08:27;;;;;;;5.13;4.70;;;5.20;99.90;;;;;;4955599;28;20674;-72
2020/12/28 16:10:53;;;;;;;3.75;3.55;;;5.10;99.90;;;;;;4956200;28;20237;-72
2020/12/28 16:13:19;;;;;;;3.30;3.10;;;5.10;99.90;;;;;;4955345;28;20617;-72
2020/12/28 16:15:45;;;;;;;4.43;4.03;;;5.10;99.90;;;;;;4955674;28;20225;-72
2020/12/28 16:18:11;;;;;;;4.82;4.53;;;5.00;99.90;;;;;;4955599;28;20209;-72
2020/12/28 16:20:37;;;;;;;4.75;4.35;;;5.00;99.90;;;;;;4954908;28;20232;-72
2020/12/28 16:23:04;;;;;;;4.80;4.30;;;5.00;99.90;;;;;;4942376;28;20651;-70
2020/12/28 16:25:31;;;;;;;4.20;3.90;;;5.00;99.90;;;;;;4942119;29;20212;-72
2020/12/28 16:27:57;;;;;;;5.63;5.22;;;4.90;99.90;;;;;;4951664;28;20252;-72
2020/12/28 16:30:24;;;;;;;4.85;4.55;;;4.90;99.90;;;;;;4940101;28;20222;-71
2020/12/28 16:32:50;;;;;;;5.30;4.80;;;4.90;99.90;;;;;;4950429;29;20467;-73
2020/12/28 16:35:16;;;;;;;4.80;4.50;;;4.90;99.90;;;;;;4953720;28;20236;-71
2020/12/28 16:37:42;;;;;;;4.32;3.90;;;4.90;99.90;;;;;;4954063;28;20654;-71
2020/12/28 16:40:09;;;;;;;6.80;4.78;;;4.90;99.90;;;;;;4953922;28;20213;-71
2020/12/28 16:42:38;;;;;;;5.40;5.10;;;4.90;99.90;;;;;;4956475;28;20221;-72
2020/12/28 16:45:04;;;;;;;4.75;4.38;;;4.90;99.90;;;;;;4957868;28;20206;-72
2020/12/28 16:47:30;;;;;;;6.07;5.35;;;4.90;99.90;;;;;;4959250;28;20236;-72
2020/12/28 16:49:56;;;;;;;6.47;5.97;;;4.80;99.90;;;;;;4958038;28;20205;-72
2020/12/28 16:52:25;;;;;;;7.70;5.10;;;4.80;99.90;;;;;;4957387;28;20229;-72
2020/12/28 16:54:51;;;;;;;6.70;5.50;;;4.80;99.90;;;;;;4958039;28;20229;-72
2020/12/28 16:57:18;;;;;;;7.05;6.13;;;4.70;99.90;;;;;;4959170;28;20221;-72
2020/12/28 16:59:44;;;;;;;8.15;6.35;;;4.70;99.90;;;;;;4958034;28;20276;-72
2020/12/28 17:02:10;;;;;;;5.40;5.00;;;4.60;99.90;;;;;;4960958;28;20284;-72
2020/12/28 17:04:36;;;;;;;6.93;5.88;;;4.60;99.90;;;;;;4961807;28;20205;-73
2020/12/28 17:07:03;;;;;;;8.02;7.15;;;4.50;99.90;;;;;;4948089;28;20328;-71
2020/12/28 17:09:31;;;;;;;5.60;5.10;;;4.40;99.90;;;;;;4961086;28;20224;-72
2020/12/28 17:11:58;;;;;;;7.72;6.60;;;4.30;99.90;;;;;;4959007;28;20590;-72
2020/12/28 17:14:25;;;;;;;7.68;6.88;;;4.30;99.90;;;;;;4956267;28;20241;-71
2020/12/28 17:16:52;;;;;;;7.30;6.40;;;4.20;99.90;;;;;;4956137;28;20256;-71
2020/12/28 17:19:21;;;;;;;8.05;6.45;;;4.10;99.90;;;;;;4955983;28;20523;-71
2020/12/28 17:21:48;;;;;;;9.27;6.70;;;4.10;99.90;;;;;;4956227;28;20240;-71
2020/12/28 17:24:16;;;;;;;7.80;7.03;;;4.10;99.90;;;;;;4956557;28;20213;-71
2020/12/28 17:26:42;;;;;;;7.97;7.25;;;4.10;99.90;;;;;;4956848;28;20213;-71
2020/12/28 17:29:08;;;;;;;6.50;5.97;;;4.10;99.90;;;;;;4955836;28;20545;-70
2020/12/28 17:31:35;;;;;;;8.45;6.95;;;4.10;99.90;;;;;;4955669;28;20336;-71
2020/12/28 17:34:02;;;;;;;9.02;6.85;;;4.10;99.90;;;;;;4955571;28;20266;-71
2020/12/28 17:36:28;;;;;;;7.45;6.75;;;4.10;99.90;;;;;;4955401;28;20245;-69
2020/12/28 17:38:54;;;;;;;7.53;6.82;;;4.10;99.90;;;;;;4954993;28;20209;-70
2020/12/28 17:41:25;;;;;;;6.80;6.10;;;4.10;99.90;;;;;;4955652;28;20367;-71
2020/12/28 17:43:51;;;;;;;7.80;5.72;;;4.10;99.90;;;;;;4955077;28;20212;-71
2020/12/28 17:46:17;;;;;;;6.50;5.88;;;4.10;99.90;;;;;;4955990;28;20228;-71
2020/12/28 17:48:44;;;;;;;11.13;6.28;;;4.10;99.90;;;;;;4954985;28;20635;-71
2020/12/28 17:51:11;;;;;;;6.65;5.95;;;4.10;99.90;;;;;;4955155;28;20224;-70
2020/12/28 17:53:37;;;;;;;7.05;5.95;;;4.10;99.90;;;;;;4957389;28;20355;-70
2020/12/28 17:56:03;;;;;;;6.68;6.07;;;4.10;99.90;;;;;;4955441;28;20578;-71
2020/12/28 17:58:30;;;;;;;6.03;5.47;;;4.10;99.90;;;;;;4955547;28;20226;-73
2020/12/28 18:00:56;;;;;;;7.97;6.40;;;4.10;99.90;;;;;;4954897;28;20729;-70